COYOTE (LAKE MENDOCINO) (COY)

Elevation: 720' · RUSSIAN R basin · Operator: US Army Corps of Engineers

Provisional data, subject to change.
Query executed Wednesday at 5:39:47   clock

Select a sensor type for a plot of data.
Note: Reservoir Flows are daily averages.

Earlier

Date RES ELE    STORAGE    RES CHG    TOC STO    ABV TOC    OUTFLOW    INFLOW    PPT INC    TEMP MN    TEMP MX    EVP PAN   
 FEET   AF   AF   AF   AF   CFS   CFS   INCHES   DEG F   DEG F   INCHES  
05/30/2016 747.98 86336 0 86370 -34 121 137 0.02 11 35 0.31
05/31/2016 748.00 86371 35 86370 1 120 154 0.05 12 37 0.32
06/01/2016 748.00 86371 0 86370 1 122 139 0.00 13 36 0.33
06/02/2016 747.99 86353 -18 86370 -17 126 132 0.00 10 34 0.29
06/03/2016 747.95 86283 -70 86370 -87 126 109 0.00 10 38 0.33
06/04/2016 747.91 86213 -70 86370 -157 129 103 0.00 14 32 0.19
06/05/2016 747.89 86178 -35 86370 -192 126 125 0.00 13 37 0.32
06/06/2016 747.87 86144 -34 86370 -226 124 124 0.00 15 37 0.33
06/07/2016 747.87 86144 0 86370 -226 124 139 0.00 13 33 0.28
06/08/2016 747.84 86091 -53 86370 -279 133 119 0.00 12 26 0.22
06/09/2016 747.80 86021 -70 86370 -349 133 112 0.00 13 26 0.26
06/10/2016 747.76 85952 -69 86370 -418 133 112 0.00 11 23 0.25
06/11/2016 747.72 85882 -70 86370 -488 133 114 0.00 10 31 0.30
06/12/2016 747.68 85812 -70 86370 -558 131 112 0.00 10 32 0.31
06/13/2016 747.64 85742 -70 86370 -628 126 105 0.00 10 26 0.27
06/14/2016 747.61 85690 -52 86370 -680 126 112 0.00 9 21 0.22
06/15/2016 747.58 85638 -52 86370 -732 131 114 0.00 8 19 0.18
06/16/2016 747.54 85568 -70 86370 -802 133 107 0.01 10 21 0.16
06/17/2016 747.53 85550 -18 86370 -820 133 132 0.06 13 22 0.14
06/18/2016 747.52 85533 -17 86370 -837 133 139 0.23 9 26 0.27
06/19/2016 747.49 85481 -52 86370 -889 133 123 0.05 8 31 0.31
06/20/2016 747.45 85411 -70 86370 -959 133 114 0.00 8 31 0.31
06/21/2016 747.42 85359 -52 86370 -1011 131 122 0.03 12 35 0.32
06/22/2016 747.40 85324 -35 86370 -1046 129 128 0.00 13 31 0.32
06/23/2016 747.36 85254 -70 86370 -1116 134 114 0.00 11 28 0.29
06/24/2016 747.32 85184 -70 86370 -1186 140 122 0.00 12 31 0.31
06/25/2016 747.26 85080 -104 86370 -1290 141 106 0.02 11 36 0.33
06/26/2016 747.22 85010 -70 86370 -1360 141 124 0.00 12 36 0.34
06/27/2016 747.18 84940 -70 86370 -1430 140 124 0.02 14 37 0.35
06/28/2016 747.12 84836 -104 86370 -1534 144 110 0.00 15 36 0.35
06/29/2016 -- -- -- -- -- -- -- -- -- -- --

Later | Latest

Warning! This data is preliminary and subject to revision.

Show COY Map | Plot COY Data | 1 Month COY Data | Real-Time COY Data | COY Info